createdAt,value
2023-03-22T00:01:33.388Z,5.15
2023-03-22T00:04:06.030Z,7.20
2023-03-22T00:06:35.992Z,9.95
2023-03-22T00:09:06.496Z,9.18
2023-03-22T00:11:36.704Z,9.98
2023-03-22T00:14:07.046Z,8.15
2023-03-22T00:16:36.955Z,8.13
2023-03-22T00:19:09.413Z,9.43
2023-03-22T00:21:39.601Z,9.70
2023-03-22T00:24:10.470Z,8.73
2023-03-22T00:26:40.490Z,4.85
2023-03-22T00:29:10.363Z,7.70
2023-03-22T00:31:41.233Z,8.10
2023-03-22T00:34:13.723Z,5.95
2023-03-22T00:36:43.666Z,7.20
2023-03-22T00:39:13.567Z,9.02
2023-03-22T00:41:44.472Z,9.95
2023-03-22T00:44:14.891Z,6.63
2023-03-22T00:46:45.136Z,9.82
2023-03-22T00:49:18.939Z,11.38
2023-03-22T00:51:49.551Z,10.40
2023-03-22T00:54:19.586Z,5.40
2023-03-22T00:56:49.978Z,6.20
2023-03-22T00:59:21.469Z,6.35
2023-03-22T01:01:51.464Z,5.28
2023-03-22T01:04:26.223Z,7.53
2023-03-22T01:07:01.388Z,4.80
2023-03-22T01:09:34.116Z,9.50
2023-03-22T01:12:04.928Z,7.10
2023-03-22T01:14:34.866Z,5.80
2023-03-22T01:17:04.845Z,5.28
2023-03-22T01:19:38.166Z,5.20
2023-03-22T01:22:09.477Z,4.77
2023-03-22T01:24:39.797Z,5.38
2023-03-22T01:27:09.702Z,7.75
2023-03-22T01:29:39.598Z,8.50
2023-03-22T01:32:09.669Z,8.07
2023-03-22T01:34:42.212Z,6.80
2023-03-22T01:37:12.570Z,9.85
2023-03-22T01:39:47.339Z,7.22
2023-03-22T01:42:22.029Z,8.18
2023-03-22T01:45:20.406Z,5.68
2023-03-22T01:47:54.409Z,5.85
2023-03-22T01:50:28.677Z,6.68
2023-03-22T01:53:05.045Z,9.20
2023-03-22T01:55:37.630Z,5.60
2023-03-22T01:58:12.499Z,6.72
2023-03-22T02:00:51.446Z,8.00
2023-03-22T02:03:59.988Z,7.07
2023-03-22T02:06:33.055Z,5.40
2023-03-22T02:09:13.520Z,8.18
2023-03-22T02:11:46.322Z,4.97
2023-03-22T02:14:46.184Z,8.02
2023-03-22T02:17:59.820Z,6.18
2023-03-22T02:21:05.736Z,6.85
2023-03-22T02:27:06.603Z,6.55
2023-03-22T02:29:45.061Z,7.18
2023-03-22T02:32:51.065Z,4.88
2023-03-22T02:35:51.692Z,8.85
2023-03-22T02:38:52.603Z,7.35
2023-03-22T02:41:35.950Z,4.95
2023-03-22T02:44:12.121Z,6.25
2023-03-22T02:46:46.940Z,7.53
2023-03-22T02:49:22.794Z,5.95
2023-03-22T02:52:01.482Z,5.35
2023-03-22T02:54:36.441Z,5.32
2023-03-22T02:57:14.494Z,5.57
2023-03-22T02:59:46.247Z,5.03
2023-03-22T03:02:19.759Z,6.25
2023-03-22T03:04:53.464Z,5.28
2023-03-22T03:07:28.658Z,7.65
2023-03-22T03:10:00.031Z,7.63
2023-03-22T03:12:32.664Z,6.75
2023-03-22T03:15:02.911Z,6.80
2023-03-22T03:17:45.522Z,5.63
2023-03-22T03:20:32.040Z,8.55
2023-03-22T03:23:16.136Z,8.60
2023-03-22T03:25:54.359Z,6.00
2023-03-22T03:28:38.198Z,6.35
2023-03-22T03:31:17.991Z,6.90
2023-03-22T03:33:57.856Z,9.32
2023-03-22T03:36:29.999Z,11.00
2023-03-22T03:39:01.233Z,9.90
2023-03-22T03:41:33.982Z,9.88
2023-03-22T03:44:07.457Z,8.05
2023-03-22T03:46:37.583Z,11.40
2023-03-22T03:49:08.848Z,9.40
2023-03-22T03:51:49.944Z,9.30
2023-03-22T03:54:20.699Z,8.02
2023-03-22T03:56:51.179Z,8.43
2023-03-22T03:59:23.985Z,8.60
2023-03-22T04:01:55.836Z,10.90
2023-03-22T04:04:32.040Z,12.27
2023-03-22T04:07:08.092Z,9.25
2023-03-22T04:09:41.536Z,11.38
2023-03-22T04:12:25.612Z,8.88
2023-03-22T04:15:19.298Z,9.88
2023-03-22T04:17:54.429Z,13.77
2023-03-22T04:20:28.184Z,12.05
2023-03-22T04:22:58.081Z,9.10
2023-03-22T04:25:30.369Z,9.48
2023-03-22T04:28:09.669Z,9.77
2023-03-22T04:30:45.691Z,8.90
2023-03-22T04:33:39.332Z,15.30
2023-03-22T04:36:19.772Z,9.02
2023-03-22T04:39:07.005Z,12.15
2023-03-22T04:41:37.518Z,9.70
2023-03-22T04:44:08.415Z,9.38
2023-03-22T04:46:44.594Z,16.15
2023-03-22T04:49:14.783Z,7.90
2023-03-22T04:51:46.173Z,9.68
2023-03-22T04:54:31.533Z,8.10
2023-03-22T04:57:01.792Z,9.63
2023-03-22T04:59:35.676Z,13.15
2023-03-22T05:02:08.316Z,11.93
2023-03-22T05:04:45.054Z,12.00
2023-03-22T05:07:31.484Z,9.82
2023-03-22T05:10:04.140Z,11.20
2023-03-22T05:12:34.259Z,12.50
2023-03-22T05:15:26.768Z,11.05
2023-03-22T05:17:59.509Z,14.27
2023-03-22T05:20:30.018Z,10.50
2023-03-22T05:23:12.434Z,8.52
2023-03-22T05:25:46.872Z,11.02
2023-03-22T05:28:21.451Z,8.57
2023-03-22T05:31:17.640Z,9.18
2023-03-22T05:33:57.606Z,9.43
2023-03-22T05:36:31.443Z,10.07
2023-03-22T05:39:12.169Z,10.15
2023-03-22T05:41:42.140Z,11.18
2023-03-22T05:44:12.027Z,12.23
2023-03-22T05:46:48.506Z,9.15
2023-03-22T05:49:41.551Z,11.20
2023-03-22T05:52:12.385Z,10.77
2023-03-22T05:55:09.508Z,9.45
2023-03-22T05:57:39.412Z,10.13
2023-03-22T06:00:13.637Z,8.02
2023-03-22T06:02:52.422Z,11.60
2023-03-22T06:05:26.068Z,11.90
2023-03-22T06:07:56.643Z,11.23
2023-03-22T06:10:26.964Z,10.27
2023-03-22T06:12:57.102Z,10.65
2023-03-22T06:15:31.653Z,14.48
2023-03-22T06:18:01.584Z,12.25
2023-03-22T06:20:39.321Z,10.65
2023-03-22T06:23:18.044Z,12.48
2023-03-22T06:25:49.914Z,13.50
2023-03-22T06:28:20.701Z,11.65
2023-03-22T06:30:56.688Z,13.02
2023-03-22T06:33:45.548Z,12.02
2023-03-22T06:36:32.677Z,9.70
2023-03-22T06:39:15.958Z,11.45
2023-03-22T06:41:48.159Z,10.63
2023-03-22T06:44:18.679Z,13.35
2023-03-22T06:46:54.642Z,10.77
2023-03-22T06:49:43.322Z,9.32
2023-03-22T06:52:21.596Z,10.32
2023-03-22T06:54:51.644Z,11.75
2023-03-22T06:57:22.650Z,11.55
2023-03-22T06:59:52.542Z,11.23
2023-03-22T07:02:23.704Z,12.07
2023-03-22T07:05:21.155Z,12.23
2023-03-22T07:07:53.795Z,9.07
2023-03-22T07:10:23.829Z,9.30
2023-03-22T07:12:53.806Z,9.73
2023-03-22T07:15:24.781Z,8.77
2023-03-22T07:18:08.549Z,6.57
2023-03-22T07:20:41.693Z,12.30
2023-03-22T07:23:15.443Z,8.38
2023-03-22T07:25:55.966Z,8.00
2023-03-22T07:28:30.913Z,8.95
2023-03-22T07:31:06.129Z,9.93
2023-03-22T07:34:11.458Z,7.13
2023-03-22T07:36:51.512Z,6.03
2023-03-22T07:39:24.776Z,7.97
2023-03-22T07:41:54.811Z,8.98
2023-03-22T07:44:25.149Z,7.93
2023-03-22T07:47:14.980Z,6.80
2023-03-22T07:50:05.982Z,7.05
2023-03-22T07:52:37.125Z,6.97
2023-03-22T07:55:10.368Z,5.35
2023-03-22T07:57:40.768Z,6.78
2023-03-22T08:00:13.137Z,9.02
2023-03-22T08:02:46.885Z,6.15
2023-03-22T08:05:43.129Z,6.93
2023-03-22T08:08:15.991Z,6.43
2023-03-22T08:10:52.183Z,5.93
2023-03-22T08:13:22.532Z,6.80
2023-03-22T08:15:52.490Z,4.95
2023-03-22T08:18:23.335Z,6.07
2023-03-22T08:20:57.229Z,5.00
2023-03-22T08:23:41.394Z,5.32
2023-03-22T08:26:34.882Z,7.50
2023-03-22T08:29:14.351Z,7.50
2023-03-22T08:31:49.963Z,5.30
2023-03-22T08:34:21.184Z,8.38
2023-03-22T08:36:51.126Z,4.50
2023-03-22T08:39:21.452Z,5.20
2023-03-22T08:42:12.232Z,4.18
2023-03-22T08:44:42.230Z,5.00
2023-03-22T08:47:12.446Z,4.50
2023-03-22T08:49:44.697Z,3.08
2023-03-22T08:52:21.764Z,4.20
2023-03-22T08:55:24.898Z,4.97
2023-03-22T08:58:19.068Z,5.03
2023-03-22T09:00:56.873Z,4.90
2023-03-22T09:03:32.987Z,5.90
2023-03-22T09:06:02.928Z,2.85
2023-03-22T09:08:38.236Z,4.97
2023-03-22T09:11:17.812Z,4.85
2023-03-22T09:13:52.406Z,3.15
2023-03-22T09:16:23.229Z,5.22
2023-03-22T09:18:53.399Z,3.65
2023-03-22T09:21:29.907Z,1.88
2023-03-22T09:24:11.024Z,1.50
2023-03-22T09:26:46.643Z,2.53
2023-03-22T09:29:22.205Z,1.38
2023-03-22T09:31:52.301Z,2.38
2023-03-22T09:34:29.699Z,1.30
2023-03-22T09:37:02.568Z,2.05
2023-03-22T09:39:40.633Z,2.60
2023-03-22T09:42:25.976Z,3.65
2023-03-22T09:45:00.319Z,1.50
2023-03-22T09:47:44.371Z,2.05
2023-03-22T09:50:17.945Z,4.25
2023-03-22T09:52:47.892Z,2.38
2023-03-22T09:55:23.717Z,2.92
2023-03-22T09:58:04.658Z,1.75
2023-03-22T10:00:44.403Z,2.10
2023-03-22T10:03:28.638Z,2.20
2023-03-22T10:06:03.824Z,6.82
2023-03-22T10:08:42.276Z,1.27
2023-03-22T10:11:21.174Z,3.97
2023-03-22T10:14:03.345Z,1.42
2023-03-22T10:16:38.088Z,2.17
2023-03-22T10:19:17.319Z,2.03
2023-03-22T10:21:49.358Z,1.70
2023-03-22T10:24:22.812Z,1.02
2023-03-22T10:26:54.047Z,1.73
2023-03-22T10:29:29.917Z,1.38
2023-03-22T10:32:16.555Z,2.00
2023-03-22T10:34:47.396Z,2.15
2023-03-22T10:37:20.113Z,1.52
2023-03-22T10:39:53.893Z,1.83
2023-03-22T10:42:26.701Z,0.90
2023-03-22T10:45:00.160Z,3.75
2023-03-22T10:47:36.260Z,1.38
2023-03-22T10:50:10.100Z,1.20
2023-03-22T10:52:45.184Z,0.90
2023-03-22T10:55:18.091Z,1.42
2023-03-22T10:57:58.946Z,2.03
2023-03-22T11:00:29.165Z,1.38
2023-03-22T11:03:04.377Z,3.67
2023-03-22T11:05:34.346Z,1.55
2023-03-22T11:08:06.752Z,1.08
2023-03-22T11:10:36.840Z,3.05
2023-03-22T11:13:23.131Z,1.45
2023-03-22T11:15:55.726Z,2.85
2023-03-22T11:18:31.914Z,1.65
2023-03-22T11:21:03.861Z,2.03
2023-03-22T11:23:36.087Z,2.03
2023-03-22T11:26:11.356Z,5.22
2023-03-22T11:28:48.065Z,4.03
2023-03-22T11:31:19.531Z,1.45
2023-03-22T11:34:01.123Z,2.35
2023-03-22T11:36:32.100Z,1.63
2023-03-22T11:39:03.362Z,1.50
2023-03-22T11:41:37.493Z,1.77
2023-03-22T11:44:10.532Z,1.67
2023-03-22T11:46:41.590Z,1.00
2023-03-22T11:49:19.558Z,3.22
2023-03-22T11:51:49.706Z,2.45
2023-03-22T11:54:29.857Z,1.25
2023-03-22T11:57:03.887Z,1.58
2023-03-22T11:59:40.952Z,1.58
2023-03-22T12:02:21.068Z,0.68
2023-03-22T12:05:00.598Z,1.42
2023-03-22T12:07:33.875Z,1.75
2023-03-22T12:10:10.058Z,1.83
2023-03-22T12:12:43.172Z,1.08
2023-03-22T12:15:20.405Z,2.90
2023-03-22T12:17:56.400Z,2.78
2023-03-22T12:20:39.197Z,2.08
2023-03-22T12:23:16.996Z,1.33
2023-03-22T12:25:52.070Z,1.38
2023-03-22T12:28:25.639Z,1.05
2023-03-22T12:30:58.766Z,0.30
2023-03-22T12:33:32.187Z,4.35
2023-03-22T12:36:06.897Z,0.90
2023-03-22T12:38:42.901Z,1.55
2023-03-22T12:41:18.254Z,0.73
2023-03-22T12:43:54.903Z,3.92
2023-03-22T12:46:28.001Z,2.70
2023-03-22T12:49:03.775Z,2.10
2023-03-22T12:51:36.332Z,3.22
2023-03-22T12:54:07.593Z,0.90
2023-03-22T12:56:42.635Z,0.70
2023-03-22T12:59:20.661Z,1.23
2023-03-22T13:01:56.705Z,1.95
2023-03-22T13:04:33.003Z,2.22
2023-03-22T13:07:17.349Z,1.00
2023-03-22T13:09:48.800Z,1.90
2023-03-22T13:12:36.923Z,2.00
2023-03-22T13:15:41.238Z,1.10
2023-03-22T13:18:33.596Z,1.30
2023-03-22T13:21:19.214Z,1.02
2023-03-22T13:24:05.119Z,1.23
2023-03-22T13:26:39.503Z,1.45
2023-03-22T13:29:19.009Z,0.90
2023-03-22T13:31:58.328Z,1.42
2023-03-22T13:34:41.137Z,3.47
2023-03-22T13:37:30.355Z,1.23
2023-03-22T13:40:04.523Z,3.15
2023-03-22T13:42:39.666Z,0.88
2023-03-22T13:45:20.758Z,2.42
2023-03-22T13:48:07.690Z,0.35
2023-03-22T13:50:39.026Z,1.65
2023-03-22T13:53:17.252Z,0.75
2023-03-22T13:56:03.258Z,0.38
2023-03-22T13:58:41.270Z,0.20
2023-03-22T14:01:19.762Z,0.57
2023-03-22T14:03:52.475Z,0.60
2023-03-22T14:06:26.110Z,1.65
2023-03-22T14:09:02.089Z,0.68
2023-03-22T14:11:43.072Z,0.90
2023-03-22T14:14:16.266Z,2.15
2023-03-22T14:16:49.830Z,1.73
2023-03-22T14:19:23.242Z,0.70
2023-03-22T14:52:42.432Z,0.10
2023-03-22T14:55:18.409Z,0.40
2023-03-22T14:57:54.008Z,1.35
2023-03-22T15:00:25.931Z,0.73
2023-03-22T15:02:59.737Z,1.13
2023-03-22T15:05:36.152Z,0.13
2023-03-22T15:08:12.020Z,0.10
2023-03-22T15:10:43.349Z,1.45
2023-03-22T15:13:16.448Z,0.40
2023-03-22T15:15:47.603Z,0.33
2023-03-22T15:18:21.062Z,1.17
2023-03-22T15:20:53.853Z,0.60
2023-03-22T15:23:25.495Z,2.05
2023-03-22T15:25:58.945Z,0.60
2023-03-22T15:28:35.769Z,1.80
2023-03-22T15:31:07.239Z,0.30
2023-03-22T15:33:39.829Z,0.88
2023-03-22T15:36:10.528Z,1.50
2023-03-22T15:38:46.946Z,1.52
2023-03-22T15:41:27.422Z,1.70
2023-03-22T15:44:08.937Z,0.43
2023-03-22T15:46:56.127Z,0.22
2023-03-22T15:49:36.546Z,0.50
2023-03-22T15:52:12.148Z,0.50
2023-03-22T15:54:46.786Z,2.42
2023-03-22T15:57:26.121Z,0.20
2023-03-22T16:00:10.051Z,1.10
2023-03-22T16:02:40.874Z,0.47
2023-03-22T16:05:15.254Z,1.92
2023-03-22T16:07:45.204Z,1.05
2023-03-22T16:10:18.638Z,4.13
2023-03-22T16:12:48.922Z,0.90
2023-03-22T16:15:23.832Z,1.70
2023-03-22T16:17:53.808Z,0.55
2023-03-22T16:20:23.779Z,1.42
2023-03-22T16:22:54.497Z,0.82
2023-03-22T16:25:26.657Z,2.25
2023-03-22T16:27:56.777Z,1.88
2023-03-22T16:30:30.014Z,0.22
2023-03-22T16:32:59.939Z,2.35
2023-03-22T16:35:30.828Z,4.38
2023-03-22T16:38:01.254Z,0.88
2023-03-22T16:40:32.907Z,3.08
2023-03-22T16:43:03.838Z,1.55
2023-03-22T16:45:38.529Z,0.88
2023-03-22T16:48:09.184Z,0.88
2023-03-22T16:50:42.443Z,1.80
2023-03-22T16:53:16.800Z,1.63
2023-03-22T16:55:47.636Z,0.85
2023-03-22T16:58:18.335Z,0.57
2023-03-22T17:00:51.132Z,1.13
2023-03-22T17:03:25.180Z,1.85
2023-03-22T17:08:24.939Z,0.50
2023-03-22T17:10:55.077Z,1.00
2023-03-22T17:13:25.049Z,6.00
2023-03-22T17:15:57.694Z,2.45
2023-03-22T17:18:28.058Z,0.55
2023-03-22T17:20:58.112Z,1.55
2023-03-22T17:23:28.483Z,1.40
2023-03-22T17:25:58.517Z,4.05
2023-03-22T17:28:31.030Z,1.67
2023-03-22T17:31:06.188Z,1.67
2023-03-22T17:33:37.047Z,3.25
2023-03-22T17:36:09.825Z,2.97
2023-03-22T17:38:45.989Z,3.13
2023-03-22T17:41:30.075Z,2.10
2023-03-22T17:44:00.461Z,5.40
2023-03-22T17:47:05.593Z,2.40
2023-03-22T17:49:22.998Z,3.53
2023-03-22T17:51:53.108Z,3.50
2023-03-22T17:54:56.964Z,14.70
2023-03-22T17:57:43.478Z,38.88
2023-03-22T18:00:03.638Z,27.77
2023-03-22T18:02:45.677Z,25.38
2023-03-22T18:05:19.425Z,7.65
2023-03-22T18:08:16.735Z,18.25
2023-03-22T18:10:45.497Z,24.88
2023-03-22T18:13:15.486Z,32.63
2023-03-22T18:15:45.612Z,32.42
2023-03-22T18:18:18.348Z,31.65
2023-03-22T18:20:57.319Z,31.65
2023-03-22T18:23:28.054Z,23.58
2023-03-22T18:26:01.851Z,25.90
2023-03-22T18:28:33.056Z,23.90
2023-03-22T18:31:03.116Z,16.83
2023-03-22T18:33:35.741Z,13.55
2023-03-22T18:36:05.879Z,11.60
2023-03-22T18:39:24.831Z,12.63
2023-03-22T18:41:44.626Z,12.02
2023-03-22T18:44:16.461Z,6.90
2023-03-22T18:46:47.035Z,6.00
2023-03-22T18:49:19.731Z,6.45
2023-03-22T18:52:23.394Z,6.57
2023-03-22T18:54:42.753Z,6.50
2023-03-22T18:57:16.345Z,11.18
2023-03-22T18:59:48.412Z,6.03
2023-03-22T19:02:28.054Z,5.82
2023-03-22T19:05:12.510Z,8.98
2023-03-22T19:07:55.119Z,10.43
2023-03-22T19:10:32.694Z,5.88
2023-03-22T19:13:02.965Z,6.88
2023-03-22T19:18:12.074Z,8.35
2023-03-22T19:23:18.815Z,9.55
2023-03-22T19:25:49.154Z,5.72
2023-03-22T19:28:19.540Z,4.95
2023-03-22T19:30:50.525Z,6.10
2023-03-22T19:33:34.736Z,8.43
2023-03-22T19:36:14.086Z,7.45
2023-03-22T19:38:44.416Z,9.05
2023-03-22T19:41:35.128Z,6.25
2023-03-22T19:44:06.080Z,7.45
2023-03-22T19:46:36.869Z,9.50
2023-03-22T19:49:06.921Z,10.93
2023-03-22T19:51:39.571Z,10.27
2023-03-22T19:54:30.169Z,9.25
2023-03-22T19:57:00.060Z,5.20
2023-03-22T19:59:31.753Z,7.75
2023-03-22T20:02:02.198Z,7.57
2023-03-22T20:04:33.221Z,6.03
2023-03-22T20:07:06.175Z,3.65
2023-03-22T20:09:36.229Z,3.92
2023-03-22T20:12:06.608Z,9.02
2023-03-22T20:14:36.712Z,10.32
2023-03-22T20:17:08.611Z,6.72
2023-03-22T20:19:42.849Z,7.72
2023-03-22T20:22:15.550Z,4.78
2023-03-22T20:24:45.546Z,3.10
2023-03-22T20:27:15.676Z,2.88
2023-03-22T20:29:45.734Z,2.05
2023-03-22T20:32:15.818Z,3.58
2023-03-22T20:34:46.305Z,1.70
2023-03-22T20:37:22.338Z,1.58
2023-03-22T20:39:52.543Z,1.05
2023-03-22T20:42:22.701Z,2.75
2023-03-22T20:44:54.669Z,3.38
2023-03-22T20:47:24.924Z,5.47
2023-03-22T20:49:55.981Z,4.70
2023-03-22T20:52:29.343Z,4.38
2023-03-22T20:54:59.600Z,6.00
2023-03-22T20:57:29.702Z,2.50
2023-03-22T21:00:01.101Z,2.28
2023-03-22T21:02:32.166Z,2.28
2023-03-22T21:05:02.330Z,5.35
2023-03-22T21:07:35.073Z,3.67
2023-03-22T21:10:05.092Z,2.15
2023-03-22T21:12:36.142Z,3.33
2023-03-22T21:15:06.473Z,2.60
2023-03-22T21:17:36.786Z,1.48
2023-03-22T21:20:07.595Z,1.45
2023-03-22T21:22:40.442Z,4.22
2023-03-22T21:25:11.668Z,4.47
2023-03-22T21:27:41.784Z,3.85
2023-03-22T21:30:13.853Z,2.53
2023-03-22T21:32:47.271Z,3.53
2023-03-22T21:35:17.343Z,8.02
2023-03-22T21:37:50.090Z,4.22
2023-03-22T21:40:22.031Z,4.78
2023-03-22T21:42:54.247Z,4.07
2023-03-22T21:45:24.222Z,5.88
2023-03-22T21:47:58.140Z,3.42
2023-03-22T21:53:01.241Z,5.43
2023-03-22T21:55:32.658Z,4.30
2023-03-22T21:58:03.716Z,6.85
2023-03-22T22:00:33.954Z,6.75
2023-03-22T22:03:04.237Z,6.32
2023-03-22T22:05:34.763Z,5.97
2023-03-22T22:08:08.271Z,4.93
2023-03-22T22:10:38.244Z,7.10
2023-03-22T22:13:08.433Z,4.55
2023-03-22T22:15:38.778Z,2.50
2023-03-22T22:18:09.189Z,4.88
2023-03-22T22:20:39.468Z,6.25
2023-03-22T22:23:12.051Z,3.25
2023-03-22T22:25:43.370Z,5.30
2023-03-22T22:28:13.856Z,4.82
2023-03-22T22:30:44.156Z,4.28
2023-03-22T22:33:14.413Z,4.50
2023-03-22T22:35:45.005Z,5.13
2023-03-22T22:38:17.925Z,3.60
2023-03-22T22:40:48.109Z,3.35
2023-03-22T22:43:18.528Z,2.60
2023-03-22T22:45:49.529Z,2.67
2023-03-22T22:48:19.657Z,3.83
2023-03-22T22:50:49.941Z,2.63
2023-03-22T22:53:22.538Z,3.10
2023-03-22T22:55:53.187Z,3.70
2023-03-22T22:58:23.302Z,2.88
2023-03-22T23:00:54.043Z,4.97
2023-03-22T23:03:25.279Z,3.35
2023-03-22T23:05:55.489Z,5.10
2023-03-22T23:08:29.336Z,3.72
2023-03-22T23:11:00.191Z,3.78
2023-03-22T23:13:31.600Z,4.85
2023-03-22T23:16:03.515Z,1.88
2023-03-22T23:18:33.518Z,5.47
2023-03-22T23:21:03.935Z,2.38
2023-03-22T23:23:40.516Z,3.45
2023-03-22T23:26:22.915Z,3.70
2023-03-22T23:28:57.775Z,2.85
2023-03-22T23:31:30.270Z,2.25
2023-03-22T23:34:02.264Z,4.75
2023-03-22T23:36:34.620Z,3.42
2023-03-22T23:39:08.244Z,3.75
2023-03-22T23:41:38.333Z,3.25
2023-03-22T23:44:08.526Z,4.25
2023-03-22T23:46:38.749Z,4.18
2023-03-22T23:49:09.293Z,2.13
2023-03-22T23:51:40.527Z,3.47
2023-03-22T23:54:13.148Z,3.88
2023-03-22T23:56:43.474Z,4.32
2023-03-22T23:59:13.509Z,3.45
